createdAt,value
2018-04-10T00:02:11.176Z,14.57
2018-04-10T00:04:38.861Z,13.83
2018-04-10T00:07:06.583Z,10.40
2018-04-10T00:09:35.011Z,10.87
2018-04-10T00:12:02.993Z,12.00
2018-04-10T00:14:30.756Z,10.43
2018-04-10T00:16:59.129Z,11.73
2018-04-10T00:19:27.196Z,10.10
2018-04-10T00:21:54.695Z,9.57
2018-04-10T00:24:22.428Z,12.07
2018-04-10T00:26:51.003Z,9.67
2018-04-10T00:29:18.676Z,10.53
2018-04-10T00:31:46.149Z,11.47
2018-04-10T00:34:17.331Z,12.73
2018-04-10T00:36:46.401Z,10.70
2018-04-10T00:39:14.741Z,17.23
2018-04-10T00:41:42.329Z,11.63
2018-04-10T00:44:09.883Z,11.40
2018-04-10T00:46:37.476Z,10.17
2018-04-10T00:49:05.624Z,11.80
2018-04-10T00:51:33.203Z,11.17
2018-04-10T00:54:01.551Z,10.93
2018-04-10T00:56:29.223Z,9.47
2018-04-10T00:58:56.992Z,9.20
2018-04-10T01:01:24.752Z,8.10
2018-04-10T01:03:52.348Z,7.93
2018-04-10T01:06:19.976Z,10.30
2018-04-10T01:08:47.731Z,11.43
2018-04-10T01:11:16.015Z,11.27
2018-04-10T01:13:43.685Z,15.80
2018-04-10T01:16:11.444Z,14.50
2018-04-10T01:18:39.215Z,14.10
2018-04-10T01:21:06.775Z,16.37
2018-04-10T01:23:34.440Z,12.97
2018-04-10T01:26:02.303Z,11.97
2018-04-10T01:28:29.867Z,11.87
2018-04-10T01:30:57.627Z,10.50
2018-04-10T01:33:25.495Z,10.73
2018-04-10T01:35:53.159Z,10.30
2018-04-10T01:38:21.036Z,10.27
2018-04-10T01:40:49.004Z,10.33
2018-04-10T01:43:16.605Z,11.17
2018-04-10T01:45:44.331Z,8.50
2018-04-10T01:48:11.887Z,12.10
2018-04-10T01:50:39.671Z,11.17
2018-04-10T01:53:07.241Z,11.17
2018-04-10T01:55:34.907Z,8.57
2018-04-10T01:58:02.603Z,9.30
2018-04-10T02:00:31.991Z,11.97
2018-04-10T02:02:59.699Z,12.90
2018-04-10T02:05:28.044Z,11.17
2018-04-10T02:07:56.020Z,12.27
2018-04-10T02:10:23.567Z,13.97
2018-04-10T02:12:51.148Z,14.57
2018-04-10T02:15:18.728Z,16.47
2018-04-10T02:17:47.183Z,12.30
2018-04-10T02:20:14.847Z,12.53
2018-04-10T02:22:42.516Z,10.30
2018-04-10T02:25:10.201Z,11.93
2018-04-10T02:27:38.556Z,12.70
2018-04-10T02:30:07.140Z,13.70
2018-04-10T02:32:35.829Z,12.40
2018-04-10T02:35:04.208Z,10.60
2018-04-10T02:37:31.757Z,10.63
2018-04-10T02:39:59.608Z,13.20
2018-04-10T02:42:27.071Z,12.27
2018-04-10T02:44:54.865Z,12.87
2018-04-10T02:47:22.432Z,11.63
2018-04-10T02:49:50.999Z,13.97
2018-04-10T02:52:19.081Z,16.50
2018-04-10T02:54:46.748Z,11.77
2018-04-10T02:57:14.313Z,11.93
2018-04-10T02:59:42.167Z,8.77
2018-04-10T03:02:09.840Z,9.90
2018-04-10T03:04:37.495Z,14.87
2018-04-10T03:07:05.365Z,13.17
2018-04-10T03:09:32.936Z,13.93
2018-04-10T03:12:01.620Z,13.07
2018-04-10T03:14:29.172Z,13.13
2018-04-10T03:16:57.312Z,15.60
2018-04-10T03:19:25.436Z,15.93
2018-04-10T03:21:53.304Z,16.63
2018-04-10T03:24:20.967Z,14.27
2018-04-10T03:26:48.768Z,15.97
2018-04-10T03:29:16.810Z,13.57
2018-04-10T03:31:44.564Z,10.87
2018-04-10T03:34:12.233Z,13.80
2018-04-10T03:36:40.350Z,14.93
2018-04-10T03:39:07.917Z,14.77
2018-04-10T03:41:35.496Z,13.47
2018-04-10T03:44:03.299Z,14.80
2018-04-10T03:46:30.883Z,18.27
2018-04-10T03:48:59.443Z,16.90
2018-04-10T03:51:26.924Z,15.70
2018-04-10T03:53:54.496Z,16.07
2018-04-10T03:56:22.962Z,20.27
2018-04-10T03:58:50.632Z,17.23
2018-04-10T04:01:18.709Z,23.83
2018-04-10T04:03:46.776Z,13.53
2018-04-10T04:06:14.439Z,19.47
2018-04-10T04:08:42.104Z,17.13
2018-04-10T04:11:09.867Z,22.57
2018-04-10T04:13:37.451Z,18.57
2018-04-10T04:16:05.929Z,18.03
2018-04-10T04:18:47.299Z,17.43
2018-04-10T04:21:26.648Z,16.60
2018-04-10T04:23:55.119Z,18.47
2018-04-10T04:26:22.797Z,20.23
2018-04-10T04:28:50.655Z,20.23
2018-04-10T04:31:18.320Z,18.90
2018-04-10T04:33:45.979Z,20.43
2018-04-10T04:36:13.951Z,20.27
2018-04-10T04:38:41.427Z,22.27
2018-04-10T04:41:09.799Z,16.87
2018-04-10T04:43:37.764Z,18.07
2018-04-10T04:46:05.527Z,19.73
2018-04-10T04:48:32.991Z,20.73
2018-04-10T04:51:01.156Z,14.77
2018-04-10T04:53:28.770Z,19.93
2018-04-10T04:55:56.999Z,20.20
2018-04-10T04:58:24.768Z,26.73
2018-04-10T05:00:53.460Z,23.57
2018-04-10T05:03:21.927Z,23.87
2018-04-10T05:05:49.505Z,21.70
2018-04-10T05:08:17.997Z,23.47
2018-04-10T05:10:46.252Z,20.60
2018-04-10T05:13:14.011Z,21.73
2018-04-10T05:15:41.479Z,18.57
2018-04-10T05:18:09.712Z,19.27
2018-04-10T05:20:38.192Z,23.50
2018-04-10T05:23:05.735Z,20.13
2018-04-10T05:25:33.575Z,22.33
2018-04-10T05:28:02.032Z,22.40
2018-04-10T05:30:29.604Z,21.37
2018-04-10T05:32:57.903Z,18.30
2018-04-10T05:35:25.431Z,20.67
2018-04-10T05:37:52.917Z,27.03
2018-04-10T05:40:20.481Z,21.37
2018-04-10T05:42:48.259Z,24.27
2018-04-10T05:45:15.777Z,20.60
2018-04-10T05:47:43.541Z,22.70
2018-04-10T05:50:11.105Z,22.10
2018-04-10T05:52:39.976Z,26.83
2018-04-10T05:55:07.556Z,24.77
2018-04-10T05:57:35.802Z,28.60
2018-04-10T06:00:03.373Z,23.07
2018-04-10T06:02:30.873Z,26.67
2018-04-10T06:04:58.375Z,27.77
2018-04-10T06:07:26.271Z,22.17
2018-04-10T06:09:54.001Z,27.57
2018-04-10T06:12:21.495Z,27.43
2018-04-10T06:14:49.064Z,31.23
2018-04-10T06:17:17.305Z,31.80
2018-04-10T06:19:45.200Z,34.53
2018-04-10T06:22:12.720Z,35.43
2018-04-10T06:24:40.431Z,34.53
2018-04-10T06:27:08.817Z,33.47
2018-04-10T06:29:37.091Z,34.37
2018-04-10T06:32:05.381Z,32.10
2018-04-10T06:34:32.868Z,31.90
2018-04-10T06:37:00.588Z,30.80
2018-04-10T06:39:28.828Z,23.57
2018-04-10T06:41:56.299Z,30.70
2018-04-10T06:44:23.975Z,27.53
2018-04-10T06:46:51.448Z,26.53
2018-04-10T06:49:19.680Z,24.47
2018-04-10T06:51:47.480Z,26.10
2018-04-10T06:54:15.239Z,27.63
2018-04-10T06:56:42.903Z,23.33
2018-04-10T06:59:10.451Z,25.37
2018-04-10T07:01:38.067Z,21.27
2018-04-10T07:04:05.595Z,21.20
2018-04-10T07:06:34.164Z,22.67
2018-04-10T07:09:01.732Z,21.70
2018-04-10T07:11:29.527Z,21.70
2018-04-10T07:13:57.052Z,20.67
2018-04-10T07:16:24.625Z,19.47
2018-04-10T07:18:52.898Z,16.77
2018-04-10T07:21:21.215Z,14.90
2018-04-10T07:23:48.985Z,16.07
2018-04-10T07:26:16.588Z,17.33
2018-04-10T07:28:44.058Z,17.67
2018-04-10T07:31:12.331Z,14.60
2018-04-10T07:33:40.803Z,13.63
2018-04-10T07:36:08.372Z,14.87
2018-04-10T07:38:35.937Z,15.57
2018-04-10T07:41:04.411Z,14.30
2018-04-10T07:43:31.879Z,16.00
2018-04-10T07:46:00.214Z,13.03
2018-04-10T07:48:27.693Z,13.27
2018-04-10T07:50:55.153Z,14.17
2018-04-10T07:53:22.684Z,12.40
2018-04-10T07:55:50.180Z,13.90
2018-04-10T07:58:18.562Z,10.37
2018-04-10T08:00:46.972Z,10.70
2018-04-10T08:03:14.415Z,11.70
2018-04-10T08:05:43.489Z,9.83
2018-04-10T08:08:10.960Z,9.57
2018-04-10T08:10:39.523Z,13.13
2018-04-10T08:13:07.193Z,10.47
2018-04-10T08:15:34.948Z,7.77
2018-04-10T08:18:03.157Z,8.20
2018-04-10T08:20:31.512Z,7.07
2018-04-10T08:22:58.976Z,6.90
2018-04-10T08:25:27.268Z,8.00
2018-04-10T08:27:54.737Z,9.40
2018-04-10T08:30:22.368Z,9.23
2018-04-10T08:32:50.743Z,8.20
2018-04-10T08:35:19.115Z,7.83
2018-04-10T08:37:47.086Z,7.43
2018-04-10T08:40:14.695Z,10.57
2018-04-10T08:42:42.156Z,7.10
2018-04-10T08:45:09.759Z,7.40
2018-04-10T08:47:37.316Z,8.87
2018-04-10T08:50:04.988Z,7.93
2018-04-10T08:52:32.847Z,8.90
2018-04-10T08:55:00.416Z,8.33
2018-04-10T08:57:28.291Z,5.50
2018-04-10T08:59:56.515Z,5.90
2018-04-10T09:02:24.121Z,4.87
2018-04-10T09:04:51.681Z,6.87
2018-04-10T09:07:19.139Z,5.53
2018-04-10T09:09:47.109Z,7.40
2018-04-10T09:12:15.485Z,5.50
2018-04-10T09:14:43.057Z,4.37
2018-04-10T09:17:11.531Z,3.63
2018-04-10T09:19:39.546Z,5.40
2018-04-10T09:22:07.064Z,6.37
2018-04-10T09:24:34.824Z,5.63
2018-04-10T09:27:02.299Z,11.23
2018-04-10T09:29:30.523Z,8.23
2018-04-10T09:31:58.049Z,7.30
2018-04-10T09:34:25.587Z,6.87
2018-04-10T09:36:53.921Z,9.40
2018-04-10T09:39:21.389Z,7.90
2018-04-10T09:41:48.861Z,2.30
2018-04-10T09:44:16.440Z,2.67
2018-04-10T09:46:44.816Z,3.30
2018-04-10T09:49:13.787Z,2.73
2018-04-10T09:51:41.785Z,3.00
2018-04-10T09:54:09.356Z,3.17
2018-04-10T09:56:37.620Z,2.10
2018-04-10T09:59:05.979Z,1.87
2018-04-10T10:01:33.855Z,2.30
2018-04-10T10:04:01.523Z,2.70
2018-04-10T10:06:28.983Z,3.90
2018-04-10T10:08:56.748Z,6.80
2018-04-10T10:11:24.508Z,3.33
2018-04-10T10:13:52.288Z,2.17
2018-04-10T10:16:20.567Z,2.80
2018-04-10T10:18:48.828Z,3.83
2018-04-10T10:21:16.592Z,1.97
2018-04-10T10:23:44.362Z,2.23
2018-04-10T10:26:11.911Z,3.97
2018-04-10T10:28:40.148Z,3.10
2018-04-10T10:31:07.729Z,2.00
2018-04-10T10:33:35.525Z,3.23
2018-04-10T10:36:03.092Z,2.80
2018-04-10T10:38:30.647Z,3.70
2018-04-10T10:40:58.716Z,2.70
2018-04-10T10:43:26.281Z,2.37
2018-04-10T10:45:53.739Z,2.77
2018-04-10T10:48:21.300Z,4.93
2018-04-10T10:50:50.272Z,5.37
2018-04-10T10:53:18.064Z,2.67
2018-04-10T10:55:45.628Z,2.53
2018-04-10T10:58:13.523Z,3.20
2018-04-10T11:00:41.130Z,1.87
2018-04-10T11:03:08.656Z,4.07
2018-04-10T11:05:36.487Z,2.20
2018-04-10T11:08:05.453Z,2.90
2018-04-10T11:10:32.921Z,2.13
2018-04-10T11:13:00.811Z,1.70
2018-04-10T11:15:28.576Z,1.27
2018-04-10T11:17:56.384Z,1.77
2018-04-10T11:20:24.623Z,2.63
2018-04-10T11:22:52.444Z,4.83
2018-04-10T11:25:20.034Z,3.50
2018-04-10T11:27:47.495Z,4.10
2018-04-10T11:30:15.080Z,3.23
2018-04-10T11:32:42.627Z,3.50
2018-04-10T11:35:11.627Z,5.90
2018-04-10T11:37:39.498Z,1.97
2018-04-10T11:40:07.956Z,2.47
2018-04-10T11:42:35.505Z,1.87
2018-04-10T11:45:03.404Z,3.00
2018-04-10T11:47:32.599Z,2.33
2018-04-10T11:50:00.160Z,6.13
2018-04-10T11:52:29.127Z,2.17
2018-04-10T11:54:56.589Z,3.23
2018-04-10T11:57:24.188Z,3.80
2018-04-10T11:59:52.447Z,1.63
2018-04-10T12:02:20.307Z,3.13
2018-04-10T12:04:47.871Z,1.53
2018-04-10T12:07:15.458Z,1.87
2018-04-10T12:09:43.876Z,1.80
2018-04-10T12:12:11.371Z,4.43
2018-04-10T12:14:38.852Z,3.00
2018-04-10T12:17:07.314Z,3.77
2018-04-10T12:19:34.888Z,3.00
2018-04-10T12:22:03.557Z,1.93
2018-04-10T12:24:32.343Z,1.63
2018-04-10T12:27:00.004Z,2.60
2018-04-10T12:29:29.403Z,1.30
2018-04-10T12:31:57.655Z,3.37
2018-04-10T12:34:25.147Z,1.93
2018-04-10T12:36:52.636Z,1.40
2018-04-10T12:39:20.572Z,1.93
2018-04-10T12:41:48.135Z,2.30
2018-04-10T12:44:16.711Z,2.63
2018-04-10T12:46:44.571Z,2.40
2018-04-10T12:49:12.261Z,2.30
2018-04-10T12:51:40.620Z,3.70
2018-04-10T12:54:08.480Z,3.00
2018-04-10T12:56:36.004Z,2.67
2018-04-10T12:59:03.476Z,4.20
2018-04-10T13:01:31.575Z,1.97
2018-04-10T13:03:59.031Z,3.83
2018-04-10T13:06:28.224Z,6.23
2018-04-10T13:08:56.091Z,3.43
2018-04-10T13:11:23.764Z,4.17
2018-04-10T13:13:52.282Z,3.13
2018-04-10T13:16:20.783Z,3.17
2018-04-10T13:18:48.399Z,2.67
2018-04-10T13:21:16.664Z,1.57
2018-04-10T13:23:44.976Z,2.80
2018-04-10T13:26:12.804Z,2.53
2018-04-10T13:28:40.368Z,1.30
2018-04-10T13:31:09.455Z,1.67
2018-04-10T13:33:37.671Z,2.40
2018-04-10T13:36:05.921Z,1.50
2018-04-10T13:38:34.153Z,1.53
2018-04-10T13:41:01.899Z,4.10
2018-04-10T13:43:29.360Z,4.10
2018-04-10T13:45:56.963Z,4.57
2018-04-10T13:48:24.624Z,5.70
2018-04-10T13:50:52.088Z,3.80
2018-04-10T13:53:19.545Z,5.10
2018-04-10T13:55:47.111Z,7.57
2018-04-10T13:58:15.344Z,3.67
2018-04-10T14:00:42.815Z,5.07
2018-04-10T14:03:10.605Z,5.60
2018-04-10T14:05:38.164Z,5.00
2018-04-10T14:08:05.712Z,5.17
2018-04-10T14:10:34.008Z,4.37
2018-04-10T14:13:01.804Z,4.57
2018-04-10T14:15:29.323Z,4.03
2018-04-10T14:17:56.789Z,3.27
2018-04-10T14:20:24.381Z,3.80
2018-04-10T14:22:51.847Z,3.40
2018-04-10T14:25:19.780Z,5.20
2018-04-10T14:27:47.264Z,4.10
2018-04-10T14:30:14.740Z,2.97
2018-04-10T14:32:42.251Z,4.57
2018-04-10T14:35:10.268Z,2.90
2018-04-10T14:37:37.740Z,3.67
2018-04-10T14:40:05.339Z,2.77
2018-04-10T14:42:34.024Z,3.17
2018-04-10T14:45:01.595Z,3.10
2018-04-10T14:47:29.150Z,3.47
2018-04-10T14:49:56.916Z,2.60
2018-04-10T14:52:24.476Z,3.50
2018-04-10T14:54:51.955Z,3.40
2018-04-10T14:57:20.276Z,3.17
2018-04-10T14:59:47.771Z,2.23
2018-04-10T15:02:15.260Z,3.77
2018-04-10T15:04:42.816Z,2.90
2018-04-10T15:07:10.346Z,1.60
2018-04-10T15:09:37.857Z,3.47
2018-04-10T15:12:05.315Z,2.30
2018-04-10T15:14:32.785Z,2.87
2018-04-10T15:17:00.360Z,3.50
2018-04-10T15:19:27.828Z,2.60
2018-04-10T15:21:55.401Z,3.13
2018-04-10T15:24:23.171Z,1.73
2018-04-10T15:26:50.823Z,1.23
2018-04-10T15:29:18.387Z,1.40
2018-04-10T15:31:46.768Z,1.47
2018-04-10T15:34:14.356Z,1.83
2018-04-10T15:36:41.941Z,3.43
2018-04-10T15:39:09.555Z,1.40
2018-04-10T15:41:37.107Z,1.20
2018-04-10T15:44:04.772Z,1.07
2018-04-10T15:46:32.356Z,2.17
2018-04-10T15:49:00.587Z,3.50
2018-04-10T15:51:28.247Z,1.37
2018-04-10T15:53:55.716Z,2.80
2018-04-10T15:56:23.197Z,1.20
2018-04-10T15:58:51.663Z,2.17
2018-04-10T16:01:19.128Z,1.47
2018-04-10T16:03:46.591Z,1.03
2018-04-10T16:06:15.260Z,1.97
2018-04-10T16:08:42.924Z,1.30
2018-04-10T16:11:10.793Z,3.87
2018-04-10T16:13:38.360Z,2.40
2018-04-10T16:16:06.597Z,2.87
2018-04-10T16:18:34.291Z,1.00
2018-04-10T16:21:01.905Z,0.97
2018-04-10T16:23:29.611Z,2.40
2018-04-10T16:25:57.612Z,1.67
2018-04-10T16:28:25.867Z,1.77
2018-04-10T16:30:53.340Z,0.80
2018-04-10T16:33:21.920Z,0.60
2018-04-10T16:35:50.180Z,0.73
2018-04-10T16:38:17.668Z,0.93
2018-04-10T16:40:45.350Z,1.23
2018-04-10T16:43:12.853Z,0.97
2018-04-10T16:45:40.419Z,2.43
2018-04-10T16:48:08.180Z,2.70
2018-04-10T16:50:35.840Z,0.83
2018-04-10T16:53:03.300Z,1.80
2018-04-10T16:55:31.263Z,4.90
2018-04-10T16:57:58.724Z,4.57
2018-04-10T17:00:26.188Z,1.10
2018-04-10T17:02:54.227Z,1.73
2018-04-10T17:05:21.915Z,2.60
2018-04-10T17:07:50.301Z,1.30
2018-04-10T17:10:17.807Z,0.70
2018-04-10T17:12:45.324Z,3.30
2018-04-10T17:15:12.935Z,0.57
2018-04-10T17:17:40.402Z,1.70
2018-04-10T17:20:08.212Z,1.53
2018-04-10T17:22:36.829Z,1.80
2018-04-10T17:25:04.295Z,1.97
2018-04-10T17:27:31.820Z,2.20
2018-04-10T17:30:00.084Z,1.37
2018-04-10T17:32:28.043Z,0.90
2018-04-10T17:34:55.603Z,2.00
2018-04-10T17:37:23.068Z,0.47
2018-04-10T17:39:50.825Z,0.70
2018-04-10T17:42:18.303Z,1.40
2018-04-10T17:44:46.760Z,1.20
2018-04-10T17:47:14.837Z,0.87
2018-04-10T17:49:42.499Z,0.70
2018-04-10T17:52:10.168Z,0.97
2018-04-10T17:54:38.135Z,1.00
2018-04-10T17:57:05.736Z,0.60
2018-04-10T17:59:33.196Z,3.73
2018-04-10T18:02:01.116Z,2.30
2018-04-10T18:04:28.780Z,0.50
2018-04-10T18:06:56.547Z,1.33
2018-04-10T18:09:24.144Z,1.13
2018-04-10T18:11:51.699Z,1.23
2018-04-10T18:14:20.242Z,1.37
2018-04-10T18:16:47.948Z,1.70
2018-04-10T18:19:15.981Z,1.37
2018-04-10T18:21:43.943Z,1.73
2018-04-10T18:24:13.288Z,0.80
2018-04-10T18:26:40.921Z,2.03
2018-04-10T18:29:08.675Z,2.40
2018-04-10T18:31:36.135Z,1.10
2018-04-10T18:34:03.800Z,1.57
2018-04-10T18:36:31.409Z,0.60
2018-04-10T18:38:59.026Z,1.03
2018-04-10T18:41:26.742Z,3.73
2018-04-10T18:43:54.264Z,1.60
2018-04-10T18:46:22.488Z,1.50
2018-04-10T18:48:49.962Z,5.73
2018-04-10T18:51:17.543Z,9.80
2018-04-10T18:53:45.913Z,6.40
2018-04-10T18:56:13.788Z,5.63
2018-04-10T18:58:41.539Z,3.33
2018-04-10T19:01:09.212Z,2.73
2018-04-10T19:03:37.071Z,3.80
2018-04-10T19:06:04.636Z,0.90
2018-04-10T19:08:32.195Z,1.67
2018-04-10T19:11:00.064Z,1.33
2018-04-10T19:13:27.620Z,3.67
2018-04-10T19:15:55.179Z,2.30
2018-04-10T19:18:22.768Z,5.03
2018-04-10T19:20:50.604Z,2.43
2018-04-10T19:23:18.168Z,2.93
2018-04-10T19:25:46.500Z,2.73
2018-04-10T19:28:14.100Z,3.60
2018-04-10T19:30:41.662Z,3.30
2018-04-10T19:33:09.427Z,3.80
2018-04-10T19:35:38.635Z,5.60
2018-04-10T19:38:06.444Z,4.60
2018-04-10T19:40:34.559Z,3.30
2018-04-10T19:43:02.537Z,5.50
2018-04-10T19:45:30.182Z,7.20
2018-04-10T19:47:57.760Z,3.87
2018-04-10T19:50:25.415Z,4.70
2018-04-10T19:52:53.002Z,5.23
2018-04-10T19:55:20.612Z,4.17
2018-04-10T19:57:48.504Z,3.83
2018-04-10T20:00:16.072Z,6.00
2018-04-10T20:02:44.444Z,8.07
2018-04-10T20:05:12.410Z,4.93
2018-04-10T20:07:41.507Z,2.87
2018-04-10T20:10:09.269Z,4.33
2018-04-10T20:12:36.828Z,4.70
2018-04-10T20:15:04.371Z,5.80
2018-04-10T20:17:31.919Z,3.40
2018-04-10T20:19:59.407Z,3.20
2018-04-10T20:22:26.890Z,4.97
2018-04-10T20:24:55.200Z,5.73
2018-04-10T20:27:23.152Z,5.37
2018-04-10T20:29:50.619Z,5.33
2018-04-10T20:32:18.224Z,7.97
2018-04-10T20:34:45.685Z,5.70
2018-04-10T20:37:13.564Z,5.53
2018-04-10T20:39:42.120Z,8.07
2018-04-10T20:42:09.600Z,9.77
2018-04-10T20:44:38.273Z,7.90
2018-04-10T20:47:05.841Z,4.10
2018-04-10T20:49:33.608Z,6.97
2018-04-10T20:52:01.464Z,5.83
2018-04-10T20:54:29.032Z,8.77
2018-04-10T20:56:56.596Z,4.97
2018-04-10T20:59:25.071Z,3.37
2018-04-10T21:01:52.541Z,6.77
2018-04-10T21:04:20.810Z,4.67
2018-04-10T21:06:49.176Z,8.80
2018-04-10T21:09:16.635Z,5.80
2018-04-10T21:11:44.201Z,13.67
2018-04-10T21:14:12.331Z,39.80
2018-04-10T21:16:39.824Z,10.20
2018-04-10T21:19:07.483Z,5.60
2018-04-10T21:24:09.359Z,38.07
2018-04-10T21:26:37.027Z,19.13
2018-04-10T21:29:04.584Z,11.27
2018-04-10T21:31:32.248Z,8.37
2018-04-10T21:34:00.007Z,7.37
2018-04-10T21:36:27.575Z,8.93
2018-04-10T21:38:56.156Z,8.97
2018-04-10T21:41:23.696Z,8.03
2018-04-10T21:43:51.358Z,9.50
2018-04-10T21:46:18.931Z,5.57
2018-04-10T21:48:46.472Z,7.57
2018-04-10T21:51:14.455Z,8.27
2018-04-10T21:53:41.928Z,8.37
2018-04-10T21:56:10.500Z,13.57
2018-04-10T21:58:38.263Z,13.90
2018-04-10T22:01:05.728Z,14.37
2018-04-10T22:03:34.400Z,14.63
2018-04-10T22:06:01.963Z,14.57
2018-04-10T22:08:29.983Z,14.33
2018-04-10T22:10:57.767Z,14.30
2018-04-10T22:13:25.351Z,12.27
2018-04-10T22:15:53.235Z,15.20
2018-04-10T22:18:21.737Z,17.43
2018-04-10T22:20:49.572Z,16.17
2018-04-10T22:23:17.356Z,21.53
2018-04-10T22:25:45.813Z,31.50
2018-04-10T22:28:13.683Z,32.77
2018-04-10T22:30:41.155Z,29.17
2018-04-10T22:33:09.356Z,32.63
2018-04-10T22:35:36.935Z,19.37
2018-04-10T22:38:04.485Z,24.23
2018-04-10T22:40:32.207Z,27.10
2018-04-10T22:42:59.796Z,31.57
2018-04-10T22:45:27.593Z,20.13
2018-04-10T22:47:55.163Z,17.37
2018-04-10T22:50:23.437Z,13.23
2018-04-10T22:52:52.020Z,25.33
2018-04-10T22:55:20.252Z,20.20
2018-04-10T22:57:48.104Z,29.53
2018-04-10T23:00:18.372Z,27.07
2018-04-10T23:02:46.237Z,28.43
2018-04-10T23:05:14.004Z,26.33
2018-04-10T23:07:41.876Z,24.97
2018-04-10T23:10:09.852Z,25.40
2018-04-10T23:12:37.621Z,23.60
2018-04-10T23:15:05.289Z,29.53
2018-04-10T23:17:33.904Z,27.97
2018-04-10T23:20:01.476Z,20.03
2018-04-10T23:22:28.944Z,25.03
2018-04-10T23:24:56.648Z,34.63
2018-04-10T23:27:24.127Z,33.50
2018-04-10T23:29:52.392Z,37.90
2018-04-10T23:32:20.052Z,28.97
2018-04-10T23:34:48.124Z,25.87
2018-04-10T23:37:15.892Z,27.57
2018-04-10T23:39:43.660Z,30.37
2018-04-10T23:42:12.341Z,30.80
2018-04-10T23:44:39.918Z,34.60
2018-04-10T23:47:07.528Z,26.80
2018-04-10T23:49:35.333Z,26.20
2018-04-10T23:52:03.384Z,27.23
2018-04-10T23:54:30.871Z,23.63
2018-04-10T23:56:59.369Z,25.37
2018-04-10T23:59:27.097Z,28.60
